Time;durP1;ratioP1;P1;durP2;ratioP2;P2;SDS_P1;SDS_P2;PMS_P1;PMS_P2;Temp;Humidity;BMP_temperature;BMP_pressure;BME280_temperature;BME280_humidity;BME280_pressure;Samples;Min_cycle;Max_cycle;Signal;HPM_P1;HPM_P2
2023/12/09 00:01:04;;;;;;;137.90;58.80;;;16.00;67.10;;;;;;5034781;28;20104;-77
2023/12/09 00:03:29;;;;;;;135.55;58.72;;;16.00;67.20;;;;;;5030227;28;20061;-78
2023/12/09 00:05:55;;;;;;;135.60;58.70;;;16.00;67.20;;;;;;5031227;28;20085;-78
2023/12/09 00:08:21;;;;;;;134.13;57.95;;;16.00;67.20;;;;;;5033881;28;20129;-78
2023/12/09 00:10:47;;;;;;;133.77;58.08;;;16.00;67.20;;;;;;5041113;28;20053;-78
2023/12/09 00:13:12;;;;;;;134.13;58.35;;;15.90;67.20;;;;;;5035707;28;20085;-78
2023/12/09 00:15:38;;;;;;;135.70;58.95;;;15.90;67.10;;;;;;5029206;28;20038;-79
2023/12/09 00:18:04;;;;;;;136.15;58.25;;;15.90;67.20;;;;;;5031855;28;20041;-78
2023/12/09 00:20:29;;;;;;;133.20;57.25;;;15.90;67.20;;;;;;5039783;28;20045;-79
2023/12/09 00:22:55;;;;;;;134.73;58.50;;;15.90;67.30;;;;;;5031780;28;20049;-81
2023/12/09 00:25:21;;;;;;;135.55;58.08;;;15.90;67.30;;;;;;5033394;28;20053;-77
2023/12/09 00:27:46;;;;;;;134.88;57.92;;;15.90;67.20;;;;;;5037641;28;20160;-78
2023/12/09 00:30:12;;;;;;;135.07;58.60;;;15.80;67.20;;;;;;5037528;28;20911;-79
2023/12/09 00:32:38;;;;;;;135.23;58.67;;;15.90;67.30;;;;;;5037986;28;20050;-78
2023/12/09 00:35:04;;;;;;;137.48;58.65;;;15.80;67.30;;;;;;5035060;28;20594;-78
2023/12/09 00:37:30;;;;;;;136.25;58.90;;;15.80;67.20;;;;;;5040558;28;20110;-77
2023/12/09 00:39:55;;;;;;;133.73;58.15;;;15.80;67.30;;;;;;5029038;28;20405;-80
2023/12/09 00:42:21;;;;;;;135.60;57.50;;;15.80;67.40;;;;;;5038456;28;20056;-79
2023/12/09 00:44:46;;;;;;;135.10;58.35;;;15.80;67.40;;;;;;5033725;28;20069;-78
2023/12/09 00:47:12;;;;;;;134.68;58.33;;;15.80;67.40;;;;;;5031267;28;20081;-78
2023/12/09 00:49:38;;;;;;;136.43;58.60;;;15.70;67.40;;;;;;5035361;28;20048;-79
2023/12/09 00:52:03;;;;;;;135.98;58.05;;;15.70;67.60;;;;;;5032170;28;20057;-77
2023/12/09 00:54:29;;;;;;;133.57;57.67;;;15.70;67.40;;;;;;5038849;28;20439;-77
2023/12/09 00:56:55;;;;;;;138.38;58.45;;;15.70;67.30;;;;;;5029093;28;20044;-77
2023/12/09 00:59:20;;;;;;;136.02;57.97;;;15.70;67.30;;;;;;5033066;28;20162;-77
2023/12/09 01:01:46;;;;;;;134.52;58.38;;;15.70;67.40;;;;;;5031203;28;20714;-78
2023/12/09 01:04:12;;;;;;;134.40;58.50;;;15.70;67.40;;;;;;5029834;28;20049;-77
2023/12/09 01:06:38;;;;;;;133.80;58.17;;;15.70;67.50;;;;;;5037258;28;20121;-77
2023/12/09 01:09:04;;;;;;;134.07;56.97;;;15.70;67.50;;;;;;5030424;28;20046;-79
2023/12/09 01:11:29;;;;;;;134.07;57.83;;;15.70;67.50;;;;;;5033679;28;20046;-77
2023/12/09 01:13:55;;;;;;;134.57;57.58;;;15.70;67.50;;;;;;5031584;28;20033;-77
2023/12/09 01:16:21;;;;;;;133.93;58.28;;;15.60;67.40;;;;;;5035476;28;20119;-79
2023/12/09 01:18:46;;;;;;;135.07;57.78;;;15.60;67.50;;;;;;5029129;28;20654;-78
2023/12/09 01:21:12;;;;;;;133.48;57.75;;;15.60;67.50;;;;;;5031470;28;20180;-77
2023/12/09 01:23:39;;;;;;;133.38;57.63;;;15.60;67.40;;;;;;5030505;28;20143;-77
2023/12/09 01:26:05;;;;;;;134.25;58.08;;;15.60;67.50;;;;;;5035520;28;20033;-77
2023/12/09 01:28:31;;;;;;;135.80;58.08;;;15.60;67.50;;;;;;5031577;28;20044;-77
2023/12/09 01:30:57;;;;;;;135.40;58.58;;;15.60;67.50;;;;;;5053637;22;20068;-35
2023/12/09 01:33:22;;;;;;;138.70;58.97;;;15.50;67.50;;;;;;5049966;28;20037;-33
2023/12/09 01:35:48;;;;;;;134.10;57.20;;;15.50;67.60;;;;;;5052630;28;20041;-34
2023/12/09 01:38:14;;;;;;;134.52;58.65;;;15.50;67.60;;;;;;5056320;28;20056;-34
2023/12/09 01:40:39;;;;;;;135.98;58.53;;;15.50;67.60;;;;;;5050342;28;20087;-34
2023/12/09 01:43:09;;;;;;;134.07;57.70;;;15.50;67.60;;;;;;5058776;28;20060;-35
2023/12/09 01:45:35;;;;;;;135.52;57.75;;;15.50;67.60;;;;;;5051913;28;20033;-34
2023/12/09 01:48:01;;;;;;;135.80;57.80;;;15.50;67.60;;;;;;5053115;28;20053;-35
2023/12/09 01:50:30;;;;;;;133.45;58.10;;;15.50;68.00;;;;;;5054891;28;20100;-34
2023/12/09 01:52:57;;;;;;;133.30;57.50;;;15.50;67.70;;;;;;5055335;28;20864;-35
2023/12/09 01:55:23;;;;;;;133.90;57.78;;;15.40;67.70;;;;;;5051339;28;20037;-35
2023/12/09 01:57:51;;;;;;;136.05;58.20;;;15.50;67.80;;;;;;5049441;28;20336;-36
2023/12/09 02:00:18;;;;;;;134.38;57.72;;;15.40;67.80;;;;;;5056450;28;20079;-34
2023/12/09 02:02:45;;;;;;;133.48;57.47;;;15.40;67.70;;;;;;5051368;28;20041;-35
2023/12/09 02:05:11;;;;;;;133.80;57.83;;;15.40;67.70;;;;;;5036450;28;20100;-34
2023/12/09 02:07:37;;;;;;;133.98;57.55;;;15.40;67.70;;;;;;5035785;28;20045;-36
2023/12/09 02:10:03;;;;;;;133.35;57.63;;;15.40;67.70;;;;;;5034896;28;20041;-35
2023/12/09 02:12:47;;;;;;;135.35;57.60;;;15.40;67.80;;;;;;5032997;28;20033;-35
2023/12/09 02:15:25;;;;;;;131.95;57.15;;;15.40;67.80;;;;;;5035247;28;20158;-36
2023/12/09 02:17:59;;;;;;;133.93;57.70;;;15.40;67.80;;;;;;5037070;28;20141;-35
2023/12/09 02:20:26;;;;;;;133.30;57.58;;;15.30;67.70;;;;;;5036814;28;20048;-35
2023/12/09 02:23:05;;;;;;;133.50;57.80;;;15.30;67.80;;;;;;5039743;28;20478;-35
2023/12/09 02:25:31;;;;;;;134.00;57.97;;;15.40;67.80;;;;;;5033768;28;20172;-36
2023/12/09 02:28:00;;;;;;;137.68;58.28;;;15.40;67.80;;;;;;5031355;28;21180;-34
2023/12/09 02:30:36;;;;;;;134.75;57.90;;;15.30;67.80;;;;;;5032512;28;20167;-35
2023/12/09 02:33:04;;;;;;;133.85;57.33;;;15.30;67.80;;;;;;5036459;28;20030;-34
2023/12/09 02:35:35;;;;;;;132.80;58.22;;;15.30;67.80;;;;;;5036085;28;20100;-33
2023/12/09 02:38:02;;;;;;;131.52;56.50;;;15.30;67.80;;;;;;5065000;22;20076;-83
2023/12/09 02:40:29;;;;;;;131.77;56.17;;;15.30;67.80;;;;;;5068856;28;20048;-83
2023/12/09 02:42:55;;;;;;;132.02;56.17;;;15.30;67.80;;;;;;5063839;28;20041;-83
2023/12/09 02:45:21;;;;;;;131.77;55.70;;;15.30;67.80;;;;;;5084953;28;20044;-84
2023/12/09 02:47:47;;;;;;;131.60;56.05;;;15.30;67.80;;;;;;5094980;28;20055;-83
2023/12/09 02:50:13;;;;;;;130.20;55.65;;;15.30;67.80;;;;;;5093583;28;20037;-84
2023/12/09 02:52:40;;;;;;;131.13;55.83;;;15.20;67.80;;;;;;5089835;28;20072;-83
2023/12/09 02:55:07;;;;;;;133.18;56.33;;;15.20;67.80;;;;;;5070813;28;20048;-83
2023/12/09 02:57:32;;;;;;;131.98;56.63;;;15.20;67.80;;;;;;5069557;28;20041;-83
2023/12/09 02:59:58;;;;;;;132.27;56.65;;;15.20;67.80;;;;;;5067554;28;20118;-83
2023/12/09 03:02:24;;;;;;;131.30;56.80;;;15.20;67.80;;;;;;5063255;28;20063;-84
2023/12/09 03:04:49;;;;;;;133.90;56.35;;;15.20;67.80;;;;;;5066114;28;20872;-83
2023/12/09 03:07:20;;;;;;;130.52;56.17;;;15.20;68.60;;;;;;5064151;28;20052;-84
2023/12/09 03:09:48;;;;;;;131.88;56.00;;;15.20;67.80;;;;;;5062619;28;20049;-83
2023/12/09 03:12:14;;;;;;;133.27;56.72;;;15.20;67.80;;;;;;5063427;28;20042;-83
2023/12/09 03:14:40;;;;;;;130.25;56.42;;;15.20;67.80;;;;;;5063971;28;20047;-84
2023/12/09 03:17:05;;;;;;;130.23;56.30;;;15.20;67.80;;;;;;5067756;28;20136;-83
2023/12/09 03:19:31;;;;;;;131.43;56.58;;;15.20;67.80;;;;;;5062754;28;20071;-84
2023/12/09 03:21:58;;;;;;;132.48;56.28;;;15.20;67.70;;;;;;5064883;28;20074;-84
2023/12/09 03:24:24;;;;;;;132.65;56.75;;;15.10;67.70;;;;;;5066923;28;20148;-83
2023/12/09 03:26:54;;;;;;;131.25;56.75;;;15.20;67.70;;;;;;5067667;28;21084;-84
2023/12/09 03:29:21;;;;;;;130.48;56.08;;;15.20;67.70;;;;;;5059284;28;20053;-84
2023/12/09 03:31:47;;;;;;;131.63;56.15;;;15.20;67.70;;;;;;5063053;28;21310;-84
2023/12/09 03:34:13;;;;;;;132.50;56.35;;;15.10;67.60;;;;;;5065516;28;20053;-84
2023/12/09 03:36:39;;;;;;;131.07;56.47;;;15.10;67.60;;;;;;5059887;28;20104;-83
2023/12/09 03:39:06;;;;;;;133.45;57.45;;;15.10;67.60;;;;;;5061556;28;20037;-83
2023/12/09 03:41:35;;;;;;;131.77;56.83;;;15.20;67.70;;;;;;5062691;28;20132;-84
2023/12/09 03:44:01;;;;;;;129.68;55.92;;;15.20;67.60;;;;;;5065738;28;20044;-83
2023/12/09 03:46:27;;;;;;;131.07;56.25;;;15.20;67.70;;;;;;5059462;28;20042;-83
2023/12/09 03:48:53;;;;;;;130.73;56.05;;;15.20;67.70;;;;;;5061159;28;21522;-84
2023/12/09 03:51:19;;;;;;;132.48;57.00;;;15.10;67.50;;;;;;5074554;28;20128;-90
2023/12/09 03:53:44;;;;;;;131.68;56.60;;;15.10;67.60;;;;;;5080540;28;20075;-89
2023/12/09 03:56:13;;;;;;;132.38;56.63;;;15.20;67.60;;;;;;5075308;28;21012;-90
2023/12/09 03:58:39;;;;;;;130.98;56.20;;;15.20;67.50;;;;;;5075231;28;20053;-89
2023/12/09 04:01:05;;;;;;;132.52;56.05;;;15.10;67.50;;;;;;5075216;28;20128;-89
2023/12/09 04:03:30;;;;;;;130.43;56.33;;;15.10;67.50;;;;;;5072224;28;20041;-88
2023/12/09 04:05:56;;;;;;;132.80;56.75;;;15.10;67.50;;;;;;5075914;28;20089;-91
2023/12/09 04:08:22;;;;;;;133.27;56.20;;;15.20;67.60;;;;;;5066831;28;20037;-86
2023/12/09 04:10:48;;;;;;;131.60;55.92;;;15.20;67.60;;;;;;5060258;28;20041;-85
2023/12/09 04:13:13;;;;;;;132.27;56.30;;;15.10;67.50;;;;;;5066283;28;20037;-84
2023/12/09 04:15:39;;;;;;;131.93;56.15;;;15.10;67.50;;;;;;5060642;28;20041;-85
2023/12/09 04:18:06;;;;;;;131.05;55.97;;;15.10;67.50;;;;;;5064480;28;20491;-84
2023/12/09 04:20:31;;;;;;;133.35;56.70;;;15.10;67.50;;;;;;5060570;28;20123;-87
2023/12/09 04:22:57;;;;;;;130.70;56.20;;;15.20;67.60;;;;;;5063257;28;20116;-86
2023/12/09 04:25:24;;;;;;;133.48;56.30;;;15.10;67.60;;;;;;5061003;28;20147;-86
2023/12/09 04:27:54;;;;;;;130.43;55.50;;;15.10;67.60;;;;;;5064706;28;20041;-84
2023/12/09 04:30:21;;;;;;;133.55;56.70;;;15.10;67.60;;;;;;5064557;28;20135;-85
2023/12/09 04:32:47;;;;;;;129.48;55.88;;;15.20;67.50;;;;;;5062556;28;20041;-85
2023/12/09 04:35:13;;;;;;;130.85;56.40;;;15.20;67.50;;;;;;5064504;28;20550;-86
2023/12/09 04:37:39;;;;;;;131.32;56.67;;;15.10;67.50;;;;;;5064719;28;20102;-86
2023/12/09 04:40:09;;;;;;;131.82;56.22;;;15.10;67.50;;;;;;5059909;28;20073;-86
2023/12/09 04:42:35;;;;;;;131.75;56.25;;;15.10;67.50;;;;;;5074205;28;20042;-84
2023/12/09 04:45:00;;;;;;;131.98;56.72;;;15.10;67.50;;;;;;5091391;28;20060;-87
2023/12/09 04:47:26;;;;;;;131.32;56.67;;;15.10;67.40;;;;;;5096763;28;20135;-86
2023/12/09 04:49:52;;;;;;;132.13;56.20;;;15.10;67.40;;;;;;5096485;28;20098;-87
2023/12/09 04:52:17;;;;;;;132.35;56.33;;;15.10;67.50;;;;;;5089078;28;20858;-85
2023/12/09 04:54:43;;;;;;;130.48;55.72;;;15.10;67.30;;;;;;5081927;28;20044;-85
2023/12/09 04:57:09;;;;;;;134.85;56.28;;;15.10;67.30;;;;;;5065233;28;20068;-85
2023/12/09 04:59:34;;;;;;;132.80;56.88;;;15.10;67.30;;;;;;5065589;28;20052;-87
2023/12/09 05:02:00;;;;;;;130.93;56.60;;;15.10;67.40;;;;;;5068677;28;20389;-85
2023/12/09 05:04:27;;;;;;;132.48;56.25;;;15.10;67.30;;;;;;5064951;28;21019;-85
2023/12/09 05:06:52;;;;;;;130.65;56.22;;;15.10;67.40;;;;;;5066404;28;21086;-86
2023/12/09 05:09:18;;;;;;;131.73;56.63;;;15.10;67.40;;;;;;5064658;28;20040;-85
2023/12/09 05:11:44;;;;;;;134.48;56.80;;;15.10;67.30;;;;;;5061871;28;20075;-87
2023/12/09 05:14:09;;;;;;;131.63;55.97;;;15.10;67.50;;;;;;5071158;28;20045;-85
2023/12/09 05:16:35;;;;;;;130.80;55.88;;;15.10;67.30;;;;;;5064280;28;20049;-86
2023/12/09 05:19:01;;;;;;;130.57;56.42;;;15.10;67.40;;;;;;5065724;28;21424;-85
2023/12/09 05:21:27;;;;;;;134.98;56.85;;;15.10;67.30;;;;;;5065451;28;20045;-86
2023/12/09 05:23:52;;;;;;;131.05;56.00;;;15.10;67.30;;;;;;5061656;28;20044;-87
2023/12/09 05:26:29;;;;;;;131.77;56.58;;;15.10;67.40;;;;;;5065347;28;20045;-85
2023/12/09 05:28:55;;;;;;;138.10;56.90;;;15.10;67.50;;;;;;5070648;28;20120;-86
2023/12/09 05:31:21;;;;;;;131.68;56.67;;;15.10;67.50;;;;;;5071576;28;20041;-86
2023/12/09 05:33:47;;;;;;;134.65;57.17;;;15.10;67.60;;;;;;5062601;28;20626;-88
2023/12/09 05:36:13;;;;;;;135.15;56.97;;;15.10;67.60;;;;;;5063841;28;20045;-85
2023/12/09 05:38:40;;;;;;;133.13;56.63;;;15.10;67.60;;;;;;5064647;28;20077;-87
2023/12/09 05:41:06;;;;;;;132.40;57.25;;;15.10;67.50;;;;;;5064872;28;20098;-85
2023/12/09 05:43:32;;;;;;;132.65;56.90;;;15.10;67.50;;;;;;5065295;28;20068;-86
2023/12/09 05:45:57;;;;;;;133.90;56.88;;;15.10;67.40;;;;;;5064201;28;20924;-85
2023/12/09 05:48:23;;;;;;;135.60;56.92;;;15.10;67.50;;;;;;5061779;28;20472;-85
2023/12/09 05:50:49;;;;;;;131.85;56.25;;;15.10;67.60;;;;;;5066578;28;20088;-86
2023/12/09 05:53:14;;;;;;;129.75;56.75;;;15.10;67.60;;;;;;5064299;28;20095;-85
2023/12/09 05:55:40;;;;;;;132.98;56.08;;;15.10;67.60;;;;;;5063945;28;20048;-85
2023/12/09 05:58:06;;;;;;;130.70;56.05;;;15.10;67.60;;;;;;5063566;28;20045;-87
2023/12/09 06:00:32;;;;;;;135.98;57.00;;;15.10;67.60;;;;;;5062674;28;20052;-85
2023/12/09 06:02:58;;;;;;;131.27;56.15;;;15.10;67.60;;;;;;5070638;28;20072;-86
2023/12/09 06:05:24;;;;;;;131.18;56.15;;;15.10;67.50;;;;;;5059468;28;20073;-85
2023/12/09 06:07:49;;;;;;;131.90;56.88;;;15.10;67.50;;;;;;5060292;28;20056;-85
2023/12/09 06:10:15;;;;;;;130.32;56.13;;;15.10;67.50;;;;;;5061738;28;20049;-86
2023/12/09 06:12:41;;;;;;;132.65;56.90;;;15.10;67.30;;;;;;5063945;28;20060;-86
2023/12/09 06:15:07;;;;;;;133.48;57.30;;;15.10;67.30;;;;;;5065235;28;20045;-86
2023/12/09 06:17:33;;;;;;;134.43;56.67;;;15.10;67.50;;;;;;5070856;28;20041;-85
2023/12/09 06:19:59;;;;;;;130.85;55.83;;;15.10;67.40;;;;;;5065888;28;20041;-86
2023/12/09 06:22:25;;;;;;;136.55;57.33;;;15.10;67.40;;;;;;5057635;28;20130;-86
2023/12/09 06:24:51;;;;;;;133.45;56.75;;;15.10;67.30;;;;;;5065725;28;21016;-87
2023/12/09 06:27:20;;;;;;;129.77;56.30;;;15.10;67.30;;;;;;5059445;28;22972;-86
2023/12/09 06:29:46;;;;;;;130.68;56.00;;;15.20;67.20;;;;;;5067829;28;20056;-86
2023/12/09 06:32:15;;;;;;;130.75;56.45;;;15.20;67.20;;;;;;5068918;28;20044;-84
2023/12/09 06:34:40;;;;;;;130.07;55.90;;;15.10;67.20;;;;;;5062151;28;20037;-84
2023/12/09 06:37:06;;;;;;;132.98;56.45;;;15.10;67.20;;;;;;5061961;28;20050;-84
2023/12/09 06:39:31;;;;;;;135.38;56.67;;;15.10;67.20;;;;;;5060541;28;20128;-84
2023/12/09 06:41:57;;;;;;;128.77;56.03;;;15.10;67.30;;;;;;5064469;28;20049;-84
2023/12/09 06:44:23;;;;;;;133.90;56.40;;;15.10;67.30;;;;;;5061787;28;20139;-83
2023/12/09 06:46:48;;;;;;;131.75;55.45;;;15.10;67.40;;;;;;5064093;28;20045;-83
2023/12/09 06:49:17;;;;;;;132.23;56.67;;;15.10;67.40;;;;;;5060695;28;20056;-84
2023/12/09 06:51:43;;;;;;;131.93;56.65;;;15.10;67.30;;;;;;5061824;28;20037;-83
2023/12/09 06:54:12;;;;;;;131.05;56.13;;;15.10;67.40;;;;;;5063889;28;20048;-84
2023/12/09 06:56:38;;;;;;;132.38;56.63;;;15.10;67.40;;;;;;5063070;28;20203;-84
2023/12/09 06:59:03;;;;;;;131.95;56.83;;;15.10;67.30;;;;;;5060995;28;20566;-83
2023/12/09 07:01:29;;;;;;;134.10;56.42;;;15.10;67.30;;;;;;5061657;28;20049;-83
2023/12/09 07:03:55;;;;;;;131.50;56.80;;;15.10;67.30;;;;;;5064671;28;20044;-83
2023/12/09 07:06:23;;;;;;;130.02;55.88;;;15.10;67.30;;;;;;5062287;28;20041;-84
2023/12/09 07:08:49;;;;;;;133.63;56.20;;;15.10;67.30;;;;;;5059604;28;20072;-83
2023/12/09 07:11:16;;;;;;;128.80;55.17;;;15.10;67.30;;;;;;5061999;28;21195;-83
2023/12/09 07:13:42;;;;;;;131.80;56.28;;;15.10;67.40;;;;;;5059864;28;20049;-82
2023/12/09 07:16:09;;;;;;;131.25;56.13;;;15.10;67.40;;;;;;5065375;28;20048;-83
2023/12/09 07:18:35;;;;;;;133.23;56.30;;;15.10;67.40;;;;;;5063111;28;20041;-83
2023/12/09 07:21:01;;;;;;;132.13;55.88;;;15.10;67.40;;;;;;5059671;28;20950;-83
2023/12/09 07:23:27;;;;;;;131.90;56.65;;;15.10;67.50;;;;;;5065838;28;20067;-84
2023/12/09 07:25:52;;;;;;;131.50;56.22;;;15.10;67.40;;;;;;5061925;28;20045;-83
2023/12/09 07:28:18;;;;;;;131.50;55.83;;;15.10;67.40;;;;;;5064709;28;20568;-83
2023/12/09 07:30:44;;;;;;;130.30;55.65;;;15.10;67.60;;;;;;5056781;28;20429;-84
2023/12/09 07:33:09;;;;;;;135.50;56.70;;;15.10;67.50;;;;;;5062566;28;20133;-85
2023/12/09 07:35:35;;;;;;;133.40;56.83;;;15.10;67.50;;;;;;5065909;28;20049;-83
2023/12/09 07:38:00;;;;;;;129.18;55.78;;;15.10;67.60;;;;;;5066595;28;20840;-84
2023/12/09 07:40:26;;;;;;;130.48;55.90;;;15.00;67.50;;;;;;5061426;28;20696;-84
2023/12/09 07:42:52;;;;;;;129.85;55.75;;;15.10;67.50;;;;;;5062226;28;20080;-83
2023/12/09 07:45:17;;;;;;;134.40;56.25;;;15.10;67.60;;;;;;5063899;28;20041;-83
2023/12/09 07:47:43;;;;;;;132.02;56.67;;;15.10;67.60;;;;;;5064575;28;20045;-85
2023/12/09 07:50:10;;;;;;;132.63;55.70;;;15.10;67.60;;;;;;5061015;28;20938;-83
2023/12/09 07:52:35;;;;;;;130.20;55.85;;;15.10;67.60;;;;;;5066923;28;20052;-84
2023/12/09 07:55:01;;;;;;;129.48;56.05;;;15.10;67.70;;;;;;5059370;28;21170;-84
2023/12/09 07:57:27;;;;;;;128.98;56.13;;;15.00;67.50;;;;;;5063773;28;20060;-84
2023/12/09 07:59:52;;;;;;;130.10;56.45;;;15.10;67.70;;;;;;5066372;28;20087;-86
2023/12/09 08:02:18;;;;;;;132.50;56.83;;;15.10;67.60;;;;;;5081498;28;20049;-88
2023/12/09 08:04:44;;;;;;;129.63;56.15;;;15.00;67.60;;;;;;5087334;28;22353;-88
2023/12/09 08:07:09;;;;;;;128.52;54.80;;;15.00;67.70;;;;;;5083381;28;20055;-88
2023/12/09 08:09:35;;;;;;;131.20;57.67;;;15.00;67.70;;;;;;5076470;22;20975;-35
2023/12/09 08:12:01;;;;;;;131.90;57.60;;;15.00;67.70;;;;;;5058081;28;20076;-34
2023/12/09 08:14:26;;;;;;;131.18;56.70;;;15.00;67.60;;;;;;5051672;28;20025;-34
2023/12/09 08:16:52;;;;;;;131.48;57.17;;;15.00;68.40;;;;;;5040515;28;20193;-34
2023/12/09 08:19:18;;;;;;;134.00;57.35;;;15.00;67.60;;;;;;5053734;28;20792;-34
2023/12/09 08:21:43;;;;;;;130.52;56.28;;;15.00;67.60;;;;;;5046191;28;20045;-34
2023/12/09 08:24:09;;;;;;;133.02;57.53;;;15.00;67.70;;;;;;5049854;28;20313;-34
2023/12/09 08:26:36;;;;;;;130.93;56.70;;;15.00;67.80;;;;;;5039192;28;20037;-34
2023/12/09 08:29:04;;;;;;;132.60;56.40;;;15.10;67.70;;;;;;5058292;28;20041;-34
2023/12/09 08:31:30;;;;;;;137.38;57.20;;;15.30;67.60;;;;;;5051030;28;20045;-34
2023/12/09 08:33:56;;;;;;;131.63;56.95;;;15.30;67.50;;;;;;5074671;22;20049;-79
2023/12/09 08:36:22;;;;;;;132.82;57.28;;;15.40;67.10;;;;;;5050102;28;20051;-78
2023/12/09 08:38:47;;;;;;;131.40;57.28;;;15.40;67.30;;;;;;5054224;28;20304;-78
2023/12/09 08:41:13;;;;;;;135.82;57.22;;;15.40;67.00;;;;;;5059799;28;20068;-80
2023/12/09 08:43:39;;;;;;;131.68;56.17;;;15.40;66.90;;;;;;5056607;28;20048;-80
2023/12/09 08:46:05;;;;;;;132.25;56.88;;;15.50;67.60;;;;;;5060374;28;20267;-81
2023/12/09 08:48:30;;;;;;;132.63;57.10;;;15.50;67.80;;;;;;5060101;28;20404;-80
2023/12/09 08:50:56;;;;;;;131.85;57.15;;;15.50;67.50;;;;;;5057992;28;20115;-79
2023/12/09 08:53:21;;;;;;;134.95;56.58;;;15.50;67.70;;;;;;5055814;28;20044;-79
2023/12/09 08:55:47;;;;;;;132.63;57.50;;;15.50;67.50;;;;;;5049694;28;20042;-79
2023/12/09 08:58:13;;;;;;;135.23;56.80;;;15.50;67.70;;;;;;5050907;28;20050;-78
2023/12/09 09:00:39;;;;;;;131.93;56.33;;;15.50;67.60;;;;;;5054556;28;20042;-79
2023/12/09 09:03:04;;;;;;;143.82;58.47;;;15.50;67.40;;;;;;5061149;28;20037;-79
2023/12/09 09:05:30;;;;;;;139.43;57.33;;;15.50;68.00;;;;;;5049270;28;20037;-77
2023/12/09 09:07:56;;;;;;;140.18;57.58;;;15.50;67.70;;;;;;5049647;28;20048;-78
2023/12/09 09:10:22;;;;;;;139.40;57.45;;;15.50;67.50;;;;;;5049461;28;20132;-79
2023/12/09 09:12:48;;;;;;;135.57;56.95;;;15.50;68.00;;;;;;5045232;28;20124;-78
2023/12/09 09:15:15;;;;;;;137.85;57.47;;;15.60;68.00;;;;;;5055895;28;20047;-79
2023/12/09 09:17:41;;;;;;;143.20;56.83;;;15.60;68.00;;;;;;5054380;28;20119;-79
2023/12/09 09:20:07;;;;;;;138.82;57.67;;;15.60;67.90;;;;;;5054472;28;20139;-78
2023/12/09 09:22:33;;;;;;;137.15;57.30;;;15.60;68.40;;;;;;5052696;28;20043;-78
2023/12/09 09:24:59;;;;;;;141.30;56.70;;;15.60;68.50;;;;;;5049358;28;20967;-76
2023/12/09 09:27:25;;;;;;;141.50;58.22;;;15.60;68.30;;;;;;5047024;28;20111;-79
2023/12/09 09:29:51;;;;;;;140.45;57.17;;;15.60;69.30;;;;;;5052189;28;20044;-78
2023/12/09 09:32:17;;;;;;;138.57;57.28;;;15.60;68.70;;;;;;5056101;28;20044;-79
2023/12/09 09:34:43;;;;;;;132.65;57.20;;;15.60;68.60;;;;;;5052469;28;21082;-79
2023/12/09 09:37:09;;;;;;;137.85;57.20;;;15.60;68.60;;;;;;5056957;28;20041;-79
2023/12/09 09:39:35;;;;;;;136.43;57.80;;;15.60;68.50;;;;;;5060457;28;20152;-76
2023/12/09 09:42:19;;;;;;;136.75;57.88;;;15.60;68.40;;;;;;5057966;28;20053;-75
2023/12/09 09:44:56;;;;;;;134.05;56.90;;;15.60;68.40;;;;;;5053845;28;20049;-77
2023/12/09 09:47:23;;;;;;;135.73;57.97;;;15.60;68.50;;;;;;5054170;28;20059;-75
2023/12/09 09:49:51;;;;;;;137.95;57.75;;;15.60;68.60;;;;;;5058824;28;20049;-76
2023/12/09 09:52:19;;;;;;;138.38;57.65;;;15.50;68.50;;;;;;5053438;28;20047;-75
2023/12/09 09:54:45;;;;;;;137.60;57.65;;;15.60;68.50;;;;;;5055589;28;20057;-76
2023/12/09 09:57:11;;;;;;;136.13;57.53;;;15.60;68.50;;;;;;5065363;28;20037;-78
2023/12/09 09:59:37;;;;;;;134.50;58.13;;;15.50;68.50;;;;;;5047075;28;20233;-75
2023/12/09 10:02:05;;;;;;;133.75;57.42;;;15.50;69.50;;;;;;5050673;28;20274;-76
2023/12/09 10:04:31;;;;;;;139.75;58.08;;;15.50;68.60;;;;;;5055353;28;20033;-75
2023/12/09 10:06:58;;;;;;;139.68;58.83;;;15.50;69.00;;;;;;5052939;28;20046;-76
2023/12/09 10:09:24;;;;;;;139.00;58.45;;;15.60;69.60;;;;;;5058284;28;20033;-76
2023/12/09 10:11:49;;;;;;;138.57;59.08;;;15.60;68.70;;;;;;5057660;28;20586;-76
2023/12/09 10:14:16;;;;;;;135.55;58.38;;;15.70;68.60;;;;;;5060245;28;20095;-77
2023/12/09 10:16:43;;;;;;;139.25;58.55;;;15.70;68.60;;;;;;5056547;28;20931;-75
2023/12/09 10:19:09;;;;;;;158.48;72.25;;;15.70;68.40;;;;;;5051591;28;20610;-77
2023/12/09 10:21:36;;;;;;;180.18;86.88;;;15.70;68.30;;;;;;5057444;28;20041;-78
2023/12/09 10:24:04;;;;;;;174.77;81.47;;;15.80;68.30;;;;;;5056451;28;20048;-78
2023/12/09 10:26:29;;;;;;;174.13;79.10;;;15.80;68.00;;;;;;5051823;28;20045;-78
2023/12/09 10:28:56;;;;;;;168.68;78.10;;;15.80;67.80;;;;;;5051908;28;20107;-80
2023/12/09 10:31:23;;;;;;;160.23;73.90;;;15.90;67.70;;;;;;5056918;28;20145;-79
2023/12/09 10:33:49;;;;;;;157.90;72.57;;;16.00;67.50;;;;;;5054844;28;20333;-80
2023/12/09 10:36:15;;;;;;;155.63;72.18;;;16.00;67.30;;;;;;5074980;28;20038;-79
2023/12/09 10:38:42;;;;;;;154.27;71.10;;;16.10;67.20;;;;;;5058406;28;20054;-79
2023/12/09 10:41:11;;;;;;;156.52;71.03;;;16.20;67.00;;;;;;5054664;28;20052;-78
2023/12/09 10:43:37;;;;;;;149.68;68.65;;;16.20;66.80;;;;;;5058025;28;20084;-78
2023/12/09 10:46:03;;;;;;;151.13;68.07;;;16.30;66.60;;;;;;5058340;28;20064;-78
2023/12/09 10:48:30;;;;;;;159.57;77.88;;;16.30;66.60;;;;;;5057508;28;20041;-79
2023/12/09 10:50:55;;;;;;;161.75;81.30;;;16.30;66.40;;;;;;5059136;28;20593;-79
2023/12/09 10:53:21;;;;;;;161.43;78.20;;;16.40;66.40;;;;;;5056124;28;20096;-78
2023/12/09 10:55:47;;;;;;;158.93;76.05;;;16.40;66.30;;;;;;5055714;28;20091;-78
2023/12/09 10:58:14;;;;;;;158.93;75.43;;;16.50;66.20;;;;;;5060015;28;20838;-78
2023/12/09 11:00:41;;;;;;;154.55;73.50;;;16.50;66.00;;;;;;5061180;28;20043;-79
2023/12/09 11:03:08;;;;;;;150.45;72.25;;;16.50;65.90;;;;;;5056062;28;20854;-78
2023/12/09 11:05:44;;;;;;;153.43;72.30;;;16.50;65.90;;;;;;5053101;28;20814;-78
2023/12/09 11:08:11;;;;;;;151.90;71.40;;;16.50;65.80;;;;;;5054030;28;20041;-79
2023/12/09 11:10:37;;;;;;;150.80;71.22;;;16.50;65.80;;;;;;5052981;28;20037;-79
2023/12/09 11:13:03;;;;;;;150.43;70.68;;;16.50;65.80;;;;;;5057226;28;20057;-78
2023/12/09 11:15:31;;;;;;;150.05;69.03;;;16.60;65.80;;;;;;5059480;28;20360;-78
2023/12/09 11:18:07;;;;;;;151.13;72.47;;;16.50;65.70;;;;;;5054612;28;20060;-79
2023/12/09 11:20:33;;;;;;;154.85;71.88;;;16.60;65.70;;;;;;5053912;28;20045;-78
2023/12/09 11:23:00;;;;;;;148.45;70.55;;;16.50;65.80;;;;;;5056229;28;20123;-78
2023/12/09 11:25:26;;;;;;;148.63;69.65;;;16.60;66.50;;;;;;5057187;28;20053;-78
2023/12/09 11:27:53;;;;;;;144.23;68.68;;;16.60;65.70;;;;;;5058901;28;20120;-79
2023/12/09 11:30:46;;;;;;;146.70;68.22;;;16.60;65.70;;;;;;5054675;28;20106;-79
2023/12/09 11:33:12;;;;;;;146.65;67.15;;;16.60;65.60;;;;;;5052148;28;20184;-81
2023/12/09 11:35:39;;;;;;;148.73;66.90;;;16.60;65.90;;;;;;5057275;28;20084;-80
2023/12/09 11:38:07;;;;;;;146.43;67.28;;;16.70;65.90;;;;;;5053573;28;20038;-85
2023/12/09 11:40:34;;;;;;;144.75;66.32;;;16.70;65.90;;;;;;5045922;28;20044;-82
2023/12/09 11:43:03;;;;;;;149.93;65.72;;;16.70;65.80;;;;;;5034308;28;20143;-81
2023/12/09 11:45:29;;;;;;;145.35;65.70;;;16.60;66.10;;;;;;5053677;28;20136;-82
2023/12/09 11:47:55;;;;;;;146.20;64.97;;;16.60;66.40;;;;;;5049342;28;20072;-81
2023/12/09 11:50:21;;;;;;;148.45;63.60;;;16.60;67.20;;;;;;5052133;28;20083;-85
2023/12/09 11:52:49;;;;;;;144.02;62.17;;;16.50;67.60;;;;;;5066778;28;20057;-83
2023/12/09 11:55:16;;;;;;;142.20;62.15;;;16.50;67.70;;;;;;5081169;22;20065;-37
2023/12/09 11:57:41;;;;;;;140.77;62.47;;;16.50;67.90;;;;;;5044553;28;20946;-37
2023/12/09 12:00:11;;;;;;;142.63;61.30;;;16.50;68.10;;;;;;5084370;22;20054;-84
2023/12/09 12:02:38;;;;;;;144.25;62.35;;;16.60;68.30;;;;;;5051246;28;20052;-79
2023/12/09 12:05:09;;;;;;;143.38;61.92;;;16.60;68.30;;;;;;5053011;28;20084;-82
2023/12/09 12:07:35;;;;;;;142.07;61.25;;;16.70;68.40;;;;;;5056426;28;20407;-84
2023/12/09 12:10:01;;;;;;;142.85;62.30;;;16.70;68.70;;;;;;5055030;28;20034;-82
2023/12/09 12:12:27;;;;;;;143.48;61.67;;;16.70;69.20;;;;;;5052448;28;20056;-79
2023/12/09 12:14:53;;;;;;;146.75;62.53;;;16.70;69.00;;;;;;5046139;28;20435;-78